ESNS Airport Information

Runway Information
Runway 10 Length 6890 ft width 148 ft
Elevation 157 ft Threshold 0 ft Heading 106
Runway 28 Length 6890 ft Width 148 ft
Elevation 125 ft Threshold 0 ft Heading 286
Airport Frequencies
Type TWR Name TWR Frequency 122.05 MHZ
Airport Navaids
Type VOR-DME Name Skelleftea Frequency 113400 KHZ
Airport Weather Information & NOTAM
ADDS - METARS form results

(2112 UTC 23 February 2019)
Data provider http://aviationweather.gov/metar/data/
 
METAR text: ESNS 232050Z AUTO 25011KT 9999 FEW098/// BKN170/// 07/03 Q1019
Conditions at: ESNS (SKELLEFTEA AIRPO, SE) observed 2050 UTC 23 February 2019
Temperature: 7.0°C (45°F)
Dewpoint: 3.0°C (37°F) [RH = 76%]
Pressure (altimeter): 30.09 inches Hg (1019.0 mb)
Winds: from the WSW (250 degrees) at 13 MPH (11 knots; 5.7 m/s)
Visibility: 6 or more miles (10+ km)
Ceiling: 17000 feet AGL
Clouds: few clouds at 9800 feet AGL
broken clouds at 17000 feet AGL
Weather: no significant weather observed at this time

METAR text: ESNS 232020Z AUTO 25011KT 9999 FEW086/// OVC150/// 07/03 Q1019
Conditions at: ESNS (SKELLEFTEA AIRPO, SE) observed 2020 UTC 23 February 2019
Temperature: 7.0°C (45°F)
Dewpoint: 3.0°C (37°F) [RH = 76%]
Pressure (altimeter): 30.09 inches Hg (1019.0 mb)
Winds: from the WSW (250 degrees) at 13 MPH (11 knots; 5.7 m/s)
Visibility: 6 or more miles (10+ km)
Ceiling: 15000 feet AGL
Clouds: few clouds at 8600 feet AGL
overcast cloud deck at 15000 feet AGL
Weather: no significant weather observed at this time

Forecast for: ESNS (SKELLEFTEA AIRPO, SE)
Text: TAF ESNS 231730Z 2318/2321 26006KT CAVOK
Forecast period: 1800 to 2100 UTC 23 February 2019
Forecast type: FROM: standard forecast or significant change
Winds: from the W (260 degrees) at 7 MPH (6 knots; 3.1 m/s)
Visibility: 6 or more miles 10+ km)
Ceiling: unknown
Clouds: missing
Weather: NSW  (no significant weather)